Mara? — 5VAB4 — position and weather

sailwx.info

Track history (hours):
 
Tides and Currents Weather Stations Pressure Air Temp Water Temp Dewpoint Dewpoint Depression Visibility Wind Speed Wind Dir Waves Ship Positions

Mara?

Last reported at 2018-Feb-08 02:01 UTC. Time now 2018-Feb-17 21:36 UTC.
Position N 46°46' E 031°57'.
Warning: this ship's position is 9 days out of date.

Length 74 m.

Type: Ship. MMSI: 669962424.

Date/timePositionNaut miles runAvg speedWind from/ knotsBaromVisibWave heightAir tempDewpointWater temp
2018-Feb-08 02:01N 46°46' E 031°57'0 0.0
2018-Feb-08 01:30N 46°46' E 031°57'0 0.0
2018-Feb-08 01:00N 46°46' E 031°57'0 0.0
2018-Feb-08 00:30N 46°46' E 031°57'0 0.0
2018-Feb-08 00:00N 46°46' E 031°57'0 0.0
2018-Feb-07 23:31N 46°46' E 031°57'0 0.0
2018-Feb-07 23:01N 46°46' E 031°57'0 0.0
2018-Feb-07 22:31N 46°46' E 031°57'0 0.0
2018-Feb-07 21:59N 46°46' E 031°57'0 0.0
2018-Feb-07 21:29N 46°46' E 031°57'0 0.0
2018-Feb-07 09:30N 46°46' E 031°57'0 0.0
2018-Feb-07 09:00N 46°46' E 031°57'0 0.0
2018-Feb-07 08:30N 46°46' E 031°57'0 0.0
2018-Feb-07 08:01N 46°46' E 031°57'0 0.0
2018-Feb-07 07:30N 46°46' E 031°57'0 0.0
2018-Feb-07 07:00N 46°46' E 031°57'0 0.0
2018-Feb-07 06:31N 46°46' E 031°57'0 0.0
2018-Feb-07 06:00N 46°46' E 031°57'0 0.0
2018-Feb-07 05:31N 46°46' E 031°57'0 0.0
2018-Feb-07 04:00N 46°46' E 031°57'0 0.0
2018-Feb-07 03:30N 46°46' E 031°57'0 0.0
2018-Feb-07 03:00N 46°46' E 031°57'0 0.0
2018-Feb-07 02:30N 46°46' E 031°57'0 0.0
2018-Feb-07 02:00N 46°46' E 031°57'0 0.0
2018-Feb-07 01:30N 46°46' E 031°57'0 0.0
2018-Feb-07 00:59N 46°46' E 031°57'0 0.0
2018-Feb-07 00:00N 46°46' E 031°57'0 0.0
2018-Feb-06 21:40N 46°46' E 031°57'0 0.0
2018-Feb-06 21:14N 46°46' E 031°57'0 0.0
2018-Feb-06 20:30N 46°46' E 031°57'0 0.0
2018-Feb-06 20:00N 46°46' E 031°57'0 0.0
2018-Feb-06 19:00N 46°46' E 031°57'0 0.0
2018-Feb-06 17:58N 46°46' E 031°57'0 0.0
2018-Feb-06 17:30N 46°46' E 031°57'0 0.0
2018-Feb-06 15:30N 46°46' E 031°57'0 0.0
2018-Feb-06 14:30N 46°46' E 031°57'0 0.0
2018-Feb-06 08:36N 46°46' E 031°57'0 0.0
2018-Feb-06 08:28N 46°46' E 031°57'0 0.0
2018-Feb-06 08:00N 46°46' E 031°57'0 0.0
2018-Feb-06 07:29N 46°46' E 031°57'0 0.0
2018-Feb-06 06:59N 46°46' E 031°57'0 0.0
2018-Feb-06 05:58N 46°46' E 031°57'0 0.0
2018-Feb-06 05:28N 46°46' E 031°57'0 0.0
2018-Feb-06 04:26N 46°46' E 031°57'1 0.4
2018-Feb-06 02:00N 46°45' E 031°56'9 5.8
2018-Feb-06 00:30N 46°37' E 031°52'38 7.8
2018-Feb-05 19:40N 46°33' E 030°58'5 7.8
2018-Feb-05 18:58N 46°27' E 030°57'4 7.9
2018-Feb-05 18:28N 46°23' E 030°57'4 7.9
2018-Feb-05 18:00N 46°20' E 030°57'160 7.0
2018-Feb-04 19:21N 43°53' E 029°27'3 7.6
2018-Feb-04 18:59N 43°51' E 029°25'4 8.1
2018-Feb-04 18:31N 43°48' E 029°22'  
2018-Feb-02 05:18N 40°57' E 028°54'  
Track history (hours):
 
Tides and Currents Weather Stations Pressure Air Temp Water Temp Dewpoint Dewpoint Depression Visibility Wind Speed Wind Dir Waves Ship Positions

Mara?

Last reported at 2018-Feb-08 02:01 UTC. Time now 2018-Feb-17 21:36 UTC.
Position N 46°46' E 031°57'.
Warning: this ship's position is 9 days out of date.

Length 74 m.

Type: Ship. MMSI: 669962424.

Date/timePositionNaut miles runAvg speedWind from/ knotsBaromVisibWave heightAir tempDewpointWater temp
2018-Feb-08 02:01N 46°46' E 031°57'0 0.0
2018-Feb-08 01:30N 46°46' E 031°57'0 0.0
2018-Feb-08 01:00N 46°46' E 031°57'0 0.0
2018-Feb-08 00:30N 46°46' E 031°57'0 0.0
2018-Feb-08 00:00N 46°46' E 031°57'0 0.0
2018-Feb-07 23:31N 46°46' E 031°57'0 0.0
2018-Feb-07 23:01N 46°46' E 031°57'0 0.0
2018-Feb-07 22:31N 46°46' E 031°57'0 0.0
2018-Feb-07 21:59N 46°46' E 031°57'0 0.0
2018-Feb-07 21:29N 46°46' E 031°57'0 0.0
2018-Feb-07 09:30N 46°46' E 031°57'0 0.0
2018-Feb-07 09:00N 46°46' E 031°57'0 0.0
2018-Feb-07 08:30N 46°46' E 031°57'0 0.0
2018-Feb-07 08:01N 46°46' E 031°57'0 0.0
2018-Feb-07 07:30N 46°46' E 031°57'0 0.0
2018-Feb-07 07:00N 46°46' E 031°57'0 0.0
2018-Feb-07 06:31N 46°46' E 031°57'0 0.0
2018-Feb-07 06:00N 46°46' E 031°57'0 0.0
2018-Feb-07 05:31N 46°46' E 031°57'0 0.0
2018-Feb-07 04:00N 46°46' E 031°57'0 0.0
2018-Feb-07 03:30N 46°46' E 031°57'0 0.0
2018-Feb-07 03:00N 46°46' E 031°57'0 0.0
2018-Feb-07 02:30N 46°46' E 031°57'0 0.0
2018-Feb-07 02:00N 46°46' E 031°57'0 0.0
2018-Feb-07 01:30N 46°46' E 031°57'0 0.0
2018-Feb-07 00:59N 46°46' E 031°57'0 0.0
2018-Feb-07 00:00N 46°46' E 031°57'0 0.0
2018-Feb-06 21:40N 46°46' E 031°57'0 0.0
2018-Feb-06 21:14N 46°46' E 031°57'0 0.0
2018-Feb-06 20:30N 46°46' E 031°57'0 0.0
2018-Feb-06 20:00N 46°46' E 031°57'0 0.0
2018-Feb-06 19:00N 46°46' E 031°57'0 0.0
2018-Feb-06 17:58N 46°46' E 031°57'0 0.0
2018-Feb-06 17:30N 46°46' E 031°57'0 0.0
2018-Feb-06 15:30N 46°46' E 031°57'0 0.0
2018-Feb-06 14:30N 46°46' E 031°57'0 0.0
2018-Feb-06 08:36N 46°46' E 031°57'0 0.0
2018-Feb-06 08:28N 46°46' E 031°57'0 0.0
2018-Feb-06 08:00N 46°46' E 031°57'0 0.0
2018-Feb-06 07:29N 46°46' E 031°57'0 0.0
2018-Feb-06 06:59N 46°46' E 031°57'0 0.0
2018-Feb-06 05:58N 46°46' E 031°57'0 0.0
2018-Feb-06 05:28N 46°46' E 031°57'0 0.0
2018-Feb-06 04:26N 46°46' E 031°57'1 0.4
2018-Feb-06 02:00N 46°45' E 031°56'9 5.8
2018-Feb-06 00:30N 46°37' E 031°52'38 7.8
2018-Feb-05 19:40N 46°33' E 030°58'5 7.8
2018-Feb-05 18:58N 46°27' E 030°57'4 7.9
2018-Feb-05 18:28N 46°23' E 030°57'4 7.9
2018-Feb-05 18:00N 46°20' E 030°57'160 7.0
2018-Feb-04 19:21N 43°53' E 029°27'3 7.6
2018-Feb-04 18:59N 43°51' E 029°25'4 8.1
2018-Feb-04 18:31N 43°48' E 029°22'  
2018-Feb-02 05:18N 40°57' E 028°54'  

Dump ship's entire track history